Bayeux, Brazil
Current Conditions -  °F | °C
As of 9:00 AM on Wednesday 28 Jan 2015 (Local Time) from SBJP Reporting Station
Scattered Clouds Scattered Clouds  
Wind Chill: 84°   Ceiling: Unl
Heat Index: 86°   Visibility: 6mi
Dew Point: 64°   Wind: 15mph
Humidity: 51%   Direction: 130°SE
Pressure: 29.97"   Gusts: NA
Location:  7.13°S, 34.93°W
Report Text: SBJP 281200Z 13013KT 9999 SCT030 29/18 Q1015
Loading
Personal Weather Stations






























Interactive Weather Map New forecast layout! Learn more

10-Day Weather Forecast

Advertisements
Track Severe Weather on mobile